createdAt,value
2022-11-04T00:01:21.006Z,13.05
2022-11-04T00:03:47.760Z,15.10
2022-11-04T00:06:14.216Z,15.90
2022-11-04T00:08:40.697Z,14.05
2022-11-04T00:11:25.628Z,14.73
2022-11-04T00:13:52.155Z,13.18
2022-11-04T00:16:37.168Z,15.60
2022-11-04T00:19:04.020Z,13.45
2022-11-04T00:21:48.828Z,13.63
2022-11-04T00:24:33.782Z,13.27
2022-11-04T00:27:18.699Z,13.25
2022-11-04T00:29:45.172Z,13.05
2022-11-04T00:32:30.367Z,15.30
2022-11-04T00:34:56.892Z,13.57
2022-11-04T00:37:23.324Z,12.75
2022-11-04T00:39:49.816Z,14.52
2022-11-04T00:42:16.237Z,13.68
2022-11-04T00:44:43.225Z,12.68
2022-11-04T00:47:09.676Z,13.48
2022-11-04T00:49:36.132Z,11.70
2022-11-04T00:52:02.593Z,13.63
2022-11-04T00:54:29.017Z,11.63
2022-11-04T00:56:55.530Z,12.68
2022-11-04T00:59:21.986Z,10.93
2022-11-04T01:01:48.662Z,11.85
2022-11-04T01:04:15.328Z,11.38
2022-11-04T01:06:41.811Z,12.43
2022-11-04T01:09:08.989Z,10.88
2022-11-04T01:11:35.456Z,10.93
2022-11-04T01:14:02.250Z,11.52
2022-11-04T01:16:29.164Z,11.98
2022-11-04T01:18:55.969Z,11.50
2022-11-04T01:21:22.444Z,9.80
2022-11-04T01:23:48.904Z,10.65
2022-11-04T01:26:17.117Z,11.02
2022-11-04T01:28:43.961Z,11.77
2022-11-04T01:31:14.743Z,9.85
2022-11-04T01:33:41.586Z,10.93
2022-11-04T01:36:09.007Z,11.88
2022-11-04T01:38:35.762Z,11.23
2022-11-04T01:41:02.562Z,10.10
2022-11-04T01:43:47.087Z,7.82
2022-11-04T01:46:18.587Z,9.90
2022-11-04T01:48:45.404Z,10.25
2022-11-04T01:51:12.952Z,9.02
2022-11-04T01:53:41.317Z,9.73
2022-11-04T01:56:12.136Z,9.45
2022-11-04T01:58:49.516Z,9.02
2022-11-04T02:01:16.140Z,10.07
2022-11-04T02:04:18.081Z,9.00
2022-11-04T02:06:46.588Z,8.90
2022-11-04T02:09:13.493Z,9.02
2022-11-04T02:11:58.396Z,8.23
2022-11-04T02:14:25.956Z,8.25
2022-11-04T02:16:53.912Z,6.78
2022-11-04T02:19:31.330Z,7.38
2022-11-04T02:21:57.764Z,10.05
2022-11-04T02:24:24.155Z,9.13
2022-11-04T02:27:09.028Z,7.47
2022-11-04T02:30:04.981Z,6.63
2022-11-04T02:32:34.556Z,8.95
2022-11-04T02:35:07.092Z,8.32
2022-11-04T02:37:59.819Z,7.20
2022-11-04T02:40:44.909Z,7.55
2022-11-04T02:43:20.828Z,7.82
2022-11-04T02:45:48.988Z,8.57
2022-11-04T02:48:27.388Z,12.18
2022-11-04T02:51:03.155Z,7.85
2022-11-04T02:53:32.547Z,8.20
2022-11-04T02:55:59.263Z,8.50
2022-11-04T02:58:29.619Z,6.88
2022-11-04T03:00:57.258Z,6.95
2022-11-04T03:03:28.467Z,7.22
2022-11-04T03:05:55.796Z,8.60
2022-11-04T03:08:27.400Z,8.27
2022-11-04T03:10:56.876Z,6.80
2022-11-04T03:13:32.406Z,8.43
2022-11-04T03:16:01.167Z,7.95
2022-11-04T03:18:36.923Z,8.18
2022-11-04T03:21:06.024Z,8.25
2022-11-04T03:23:32.771Z,7.20
2022-11-04T03:26:07.065Z,9.13
2022-11-04T03:28:42.325Z,8.70
2022-11-04T03:31:10.826Z,7.85
2022-11-04T03:33:47.347Z,7.13
2022-11-04T03:36:14.057Z,9.60
2022-11-04T03:38:40.593Z,7.45
2022-11-04T03:41:18.248Z,7.72
2022-11-04T03:43:44.717Z,7.30
2022-11-04T03:46:11.362Z,8.73
2022-11-04T03:48:37.875Z,7.82
2022-11-04T03:51:04.405Z,9.10
2022-11-04T03:53:31.875Z,8.63
2022-11-04T03:56:13.061Z,7.72
2022-11-04T03:58:52.760Z,9.15
2022-11-04T04:01:22.062Z,7.28
2022-11-04T04:03:53.254Z,7.53
2022-11-04T04:06:21.901Z,8.65
2022-11-04T04:08:56.282Z,7.63
2022-11-04T04:11:25.732Z,8.02
2022-11-04T04:13:55.093Z,6.95
2022-11-04T04:16:27.193Z,8.73
2022-11-04T04:18:58.612Z,9.40
2022-11-04T04:21:51.645Z,8.15
2022-11-04T04:24:38.551Z,8.68
2022-11-04T04:27:23.403Z,9.05
2022-11-04T04:29:51.345Z,7.63
2022-11-04T04:32:18.191Z,8.68
2022-11-04T04:34:44.693Z,7.57
2022-11-04T04:37:20.130Z,10.57
2022-11-04T04:40:13.270Z,8.52
2022-11-04T04:42:58.182Z,8.17
2022-11-04T04:45:35.929Z,7.53
2022-11-04T04:48:02.464Z,9.57
2022-11-04T04:50:31.487Z,6.90
2022-11-04T04:52:58.923Z,7.28
2022-11-04T04:55:25.580Z,7.72
2022-11-04T04:57:52.040Z,8.35
2022-11-04T05:00:20.608Z,7.93
2022-11-04T05:02:48.231Z,8.15
2022-11-04T05:07:42.643Z,9.02
2022-11-04T05:10:10.583Z,10.60
2022-11-04T05:12:56.458Z,8.32
2022-11-04T05:15:22.895Z,8.45
2022-11-04T05:17:53.352Z,6.53
2022-11-04T05:20:19.897Z,6.90
2022-11-04T05:22:46.312Z,7.35
2022-11-04T05:25:12.822Z,7.50
2022-11-04T05:27:39.312Z,7.75
2022-11-04T05:30:06.212Z,10.52
2022-11-04T05:32:32.721Z,8.82
2022-11-04T05:34:59.271Z,7.00
2022-11-04T05:37:26.035Z,8.30
2022-11-04T05:39:53.031Z,6.72
2022-11-04T05:42:19.960Z,9.40
2022-11-04T05:44:46.402Z,8.73
2022-11-04T05:47:12.819Z,9.57
2022-11-04T05:49:39.395Z,6.90
2022-11-04T05:52:05.992Z,8.95
2022-11-04T05:54:32.485Z,8.43
2022-11-04T05:56:58.896Z,9.38
2022-11-04T05:59:25.406Z,8.75
2022-11-04T06:01:52.004Z,7.88
2022-11-04T06:04:19.409Z,8.98
2022-11-04T06:06:45.936Z,7.68
2022-11-04T06:09:12.480Z,9.70
2022-11-04T06:11:39.234Z,8.52
2022-11-04T06:14:05.703Z,9.23
2022-11-04T06:16:32.146Z,9.32
2022-11-04T06:19:01.645Z,9.63
2022-11-04T06:21:33.055Z,7.88
2022-11-04T06:23:59.799Z,9.35
2022-11-04T06:26:28.226Z,8.07
2022-11-04T06:28:55.340Z,8.32
2022-11-04T06:31:22.195Z,8.85
2022-11-04T06:33:48.730Z,7.28
2022-11-04T06:36:15.979Z,10.05
2022-11-04T06:38:42.443Z,7.78
2022-11-04T06:41:11.635Z,9.63
2022-11-04T06:43:38.111Z,8.10
2022-11-04T06:46:04.845Z,10.50
2022-11-04T06:48:31.629Z,9.05
2022-11-04T06:50:59.084Z,7.80
2022-11-04T06:53:26.212Z,8.50
2022-11-04T06:55:53.407Z,7.93
2022-11-04T06:58:19.931Z,9.13
2022-11-04T07:00:53.637Z,7.68
2022-11-04T07:03:20.260Z,9.43
2022-11-04T07:05:46.720Z,9.95
2022-11-04T07:08:13.250Z,8.20
2022-11-04T07:10:39.741Z,8.07
2022-11-04T07:13:06.573Z,8.65
2022-11-04T07:15:33.425Z,7.70
2022-11-04T07:17:59.935Z,8.95
2022-11-04T07:20:26.398Z,8.43
2022-11-04T07:22:54.164Z,9.55
2022-11-04T07:25:20.784Z,9.23
2022-11-04T07:27:47.208Z,7.75
2022-11-04T07:30:13.730Z,11.98
2022-11-04T07:32:40.208Z,7.60
2022-11-04T07:35:06.911Z,9.90
2022-11-04T07:37:33.700Z,9.35
2022-11-04T07:40:00.142Z,12.10
2022-11-04T07:42:26.602Z,8.15
2022-11-04T07:44:55.323Z,10.10
2022-11-04T07:47:22.159Z,9.25
2022-11-04T07:49:48.796Z,8.95
2022-11-04T07:52:15.563Z,9.43
2022-11-04T07:54:42.070Z,9.13
2022-11-04T07:57:08.504Z,10.18
2022-11-04T07:59:34.936Z,10.98
2022-11-04T08:02:01.690Z,15.25
2022-11-04T08:04:28.382Z,8.75
2022-11-04T08:06:54.816Z,15.80
2022-11-04T08:09:21.399Z,14.38
2022-11-04T08:11:47.924Z,11.68
2022-11-04T08:14:14.434Z,10.90
2022-11-04T08:16:40.987Z,11.98
2022-11-04T08:19:07.573Z,10.75
2022-11-04T08:21:34.093Z,11.43
2022-11-04T08:24:03.726Z,9.38
2022-11-04T08:26:30.211Z,8.15
2022-11-04T08:28:57.052Z,8.82
2022-11-04T08:31:28.583Z,8.10
2022-11-04T08:33:55.939Z,10.88
2022-11-04T08:36:23.890Z,9.80
2022-11-04T08:38:51.043Z,10.07
2022-11-04T08:41:19.726Z,9.45
2022-11-04T08:43:46.580Z,9.73
2022-11-04T08:46:14.086Z,9.63
2022-11-04T08:48:41.086Z,9.20
2022-11-04T08:51:12.439Z,9.43
2022-11-04T08:53:38.880Z,8.05
2022-11-04T08:56:16.940Z,10.05
2022-11-04T08:58:43.751Z,9.02
2022-11-04T09:01:10.945Z,9.25
2022-11-04T09:03:38.674Z,9.45
2022-11-04T09:06:06.267Z,9.05
2022-11-04T09:08:32.869Z,8.93
2022-11-04T09:10:59.378Z,9.45
2022-11-04T09:13:25.851Z,8.40
2022-11-04T09:15:52.424Z,8.48
2022-11-04T09:18:18.892Z,9.82
2022-11-04T09:20:45.428Z,8.75
2022-11-04T09:23:12.178Z,8.45
2022-11-04T09:25:39.091Z,10.00
2022-11-04T09:28:05.845Z,9.95
2022-11-04T09:30:32.701Z,10.48
2022-11-04T09:32:59.292Z,7.97
2022-11-04T09:35:27.578Z,8.63
2022-11-04T09:37:54.268Z,9.25
2022-11-04T09:40:22.064Z,10.70
2022-11-04T09:42:54.797Z,7.85
2022-11-04T09:45:24.419Z,9.52
2022-11-04T09:47:52.030Z,10.10
2022-11-04T09:50:25.781Z,9.77
2022-11-04T09:52:55.573Z,9.02
2022-11-04T09:55:45.412Z,9.32
2022-11-04T09:58:13.060Z,10.98
2022-11-04T10:00:40.725Z,9.15
2022-11-04T10:03:19.071Z,10.95
2022-11-04T10:05:51.326Z,10.35
2022-11-04T10:08:17.795Z,10.30
2022-11-04T10:11:06.589Z,13.77
2022-11-04T10:13:46.084Z,29.35
2022-11-04T10:16:18.623Z,14.88
2022-11-04T10:18:53.996Z,12.20
2022-11-04T10:21:26.189Z,11.32
2022-11-04T10:23:55.414Z,11.07
2022-11-04T10:26:25.133Z,11.27
2022-11-04T10:28:57.235Z,10.82
2022-11-04T10:31:24.169Z,9.43
2022-11-04T10:33:54.129Z,9.55
2022-11-04T10:36:21.481Z,12.00
2022-11-04T10:38:52.397Z,10.20
2022-11-04T10:41:25.020Z,10.45
2022-11-04T10:43:54.209Z,9.13
2022-11-04T10:46:26.585Z,9.35
2022-11-04T10:49:11.519Z,9.98
2022-11-04T10:51:38.235Z,7.85
2022-11-04T10:54:05.869Z,12.00
2022-11-04T10:56:38.356Z,9.00
2022-11-04T10:59:19.130Z,9.73
2022-11-04T11:01:51.885Z,9.15
2022-11-04T11:04:26.097Z,8.32
2022-11-04T11:06:54.191Z,9.20
2022-11-04T11:09:20.612Z,11.40
2022-11-04T11:11:51.371Z,8.85
2022-11-04T11:14:18.141Z,8.45
2022-11-04T11:16:45.776Z,9.45
2022-11-04T11:19:12.246Z,8.63
2022-11-04T11:21:45.901Z,7.63
2022-11-04T11:24:18.989Z,9.85
2022-11-04T11:26:49.326Z,8.88
2022-11-04T11:29:21.385Z,8.80
2022-11-04T11:31:48.387Z,7.60
2022-11-04T11:34:41.458Z,8.75
2022-11-04T11:37:19.579Z,9.03
2022-11-04T11:39:46.197Z,7.43
2022-11-04T11:42:16.118Z,9.00
2022-11-04T11:44:47.964Z,7.70
2022-11-04T11:47:20.642Z,9.32
2022-11-04T11:50:03.901Z,9.65
2022-11-04T11:52:30.368Z,7.70
2022-11-04T11:55:01.849Z,8.02
2022-11-04T11:57:35.885Z,8.70
2022-11-04T12:03:10.603Z,7.88
2022-11-04T12:11:48.673Z,9.18
2022-11-04T12:14:20.648Z,9.90
2022-11-04T12:16:57.220Z,8.88
2022-11-04T12:19:52.795Z,8.68
2022-11-04T12:22:37.511Z,8.52
2022-11-04T12:25:09.852Z,8.85
2022-11-04T12:27:39.384Z,8.27
2022-11-04T12:30:17.796Z,6.90
2022-11-04T12:32:50.339Z,6.43
2022-11-04T12:35:19.497Z,7.63
2022-11-04T12:38:01.007Z,8.18
2022-11-04T12:41:05.046Z,9.77
2022-11-04T12:43:49.952Z,8.60
2022-11-04T12:46:28.434Z,6.75
2022-11-04T12:49:00.772Z,8.98
2022-11-04T12:51:29.523Z,8.35
2022-11-04T12:54:04.941Z,9.57
2022-11-04T12:56:41.582Z,6.82
2022-11-04T12:59:40.552Z,8.13
2022-11-04T13:02:12.732Z,8.90
2022-11-04T13:04:42.024Z,8.88
2022-11-04T13:07:12.836Z,8.57
2022-11-04T13:09:59.524Z,8.10
2022-11-04T13:12:29.745Z,8.50
2022-11-04T13:15:05.074Z,8.75
2022-11-04T13:17:39.371Z,8.15
2022-11-04T13:20:08.850Z,8.93
2022-11-04T13:22:36.884Z,8.35
2022-11-04T13:25:05.150Z,9.57
2022-11-04T13:27:33.546Z,10.57
2022-11-04T13:30:13.098Z,9.88
2022-11-04T13:32:49.143Z,11.68
2022-11-04T13:35:18.603Z,12.45
2022-11-04T13:37:54.954Z,12.30
2022-11-04T13:40:24.848Z,11.50
2022-11-04T13:42:54.049Z,11.43
2022-11-04T13:45:20.998Z,14.52
2022-11-04T13:47:50.510Z,13.35
2022-11-04T13:50:35.454Z,10.43
2022-11-04T13:53:02.456Z,11.82
2022-11-04T13:55:29.146Z,8.23
2022-11-04T13:57:57.647Z,9.70
2022-11-04T14:00:24.296Z,8.10
2022-11-04T14:02:50.946Z,7.72
2022-11-04T14:05:34.552Z,8.63
2022-11-04T14:08:01.187Z,7.88
2022-11-04T14:10:37.045Z,7.75
2022-11-04T14:13:22.133Z,10.35
2022-11-04T14:16:02.494Z,9.68
2022-11-04T14:18:33.613Z,9.48
2022-11-04T14:21:02.875Z,10.18
2022-11-04T14:23:29.430Z,11.55
2022-11-04T14:26:01.365Z,12.27
2022-11-04T14:28:29.718Z,14.65
2022-11-04T14:30:57.610Z,17.08
2022-11-04T14:33:36.282Z,15.93
2022-11-04T14:36:17.785Z,17.92
2022-11-04T14:38:44.875Z,15.00
2022-11-04T14:41:13.888Z,13.10
2022-11-04T14:43:42.389Z,13.50
2022-11-04T14:46:09.444Z,15.63
2022-11-04T14:48:35.988Z,15.55
2022-11-04T14:51:05.218Z,11.50
2022-11-04T14:53:32.957Z,10.77
2022-11-04T14:56:10.735Z,13.35
2022-11-04T14:58:37.231Z,9.48
2022-11-04T15:01:04.102Z,9.30
2022-11-04T15:06:34.850Z,13.30
2022-11-04T15:09:27.248Z,11.38
2022-11-04T15:12:27.666Z,11.68
2022-11-04T15:14:54.751Z,11.55
2022-11-04T15:17:22.547Z,10.55
2022-11-04T15:19:50.777Z,9.95
2022-11-04T15:22:17.366Z,12.68
2022-11-04T15:24:44.305Z,11.05
2022-11-04T15:27:13.533Z,11.80
2022-11-04T15:29:39.967Z,13.05
2022-11-04T15:32:06.760Z,13.88
2022-11-04T15:34:34.075Z,13.55
2022-11-04T15:37:05.436Z,16.77
2022-11-04T15:39:41.523Z,13.30
2022-11-04T15:42:27.241Z,11.00
2022-11-04T15:44:55.023Z,9.80
2022-11-04T15:47:21.582Z,10.13
2022-11-04T15:49:48.916Z,9.07
2022-11-04T15:52:21.087Z,9.90
2022-11-04T15:54:49.388Z,10.75
2022-11-04T15:57:20.399Z,11.38
2022-11-04T16:00:16.404Z,11.35
2022-11-04T16:02:46.018Z,10.68
2022-11-04T16:05:12.743Z,10.88
2022-11-04T16:07:40.212Z,15.27
2022-11-04T16:10:25.301Z,13.20
2022-11-04T16:12:54.443Z,12.40
2022-11-04T16:15:42.493Z,13.50
2022-11-04T16:18:21.161Z,14.48
2022-11-04T16:20:48.551Z,11.13
2022-11-04T16:23:18.176Z,13.15
2022-11-04T16:25:44.864Z,10.25
2022-11-04T16:28:20.772Z,13.05
2022-11-04T16:30:57.536Z,13.20
2022-11-04T16:33:24.081Z,12.50
2022-11-04T16:35:50.503Z,12.27
2022-11-04T16:38:17.148Z,10.95
2022-11-04T16:40:45.972Z,10.23
2022-11-04T16:43:13.523Z,12.00
2022-11-04T16:45:40.777Z,11.23
2022-11-04T16:48:16.060Z,12.73
2022-11-04T16:50:42.964Z,14.93
2022-11-04T16:53:09.645Z,10.10
2022-11-04T16:55:39.529Z,10.43
2022-11-04T16:58:06.224Z,12.30
2022-11-04T17:00:33.367Z,11.82
2022-11-04T17:03:01.173Z,12.13
2022-11-04T17:05:27.965Z,13.30
2022-11-04T17:07:57.635Z,14.32
2022-11-04T17:10:29.770Z,15.10
2022-11-04T17:12:56.651Z,18.65
2022-11-04T17:15:23.082Z,17.77
2022-11-04T17:17:49.613Z,18.92
2022-11-04T17:20:20.497Z,13.32
2022-11-04T17:22:47.377Z,12.93
2022-11-04T17:25:21.601Z,12.20
2022-11-04T17:27:48.539Z,12.77
2022-11-04T17:30:16.954Z,12.48
2022-11-04T17:32:44.346Z,14.65
2022-11-04T17:35:11.574Z,12.57
2022-11-04T17:37:38.374Z,11.73
2022-11-04T17:40:05.354Z,15.38
2022-11-04T17:42:50.627Z,13.85
2022-11-04T17:45:17.117Z,12.93
2022-11-04T17:47:43.627Z,12.77
2022-11-04T17:50:10.110Z,11.82
2022-11-04T17:52:36.871Z,10.77
2022-11-04T17:55:05.075Z,10.38
2022-11-04T17:57:33.467Z,11.82
2022-11-04T17:59:59.907Z,12.43
2022-11-04T18:02:26.522Z,11.18
2022-11-04T18:04:53.061Z,28.30
2022-11-04T18:07:19.547Z,11.73
2022-11-04T18:09:46.726Z,11.05
2022-11-04T18:12:31.758Z,10.70
2022-11-04T18:14:58.184Z,11.63
2022-11-04T18:17:25.012Z,13.10
2022-11-04T18:19:51.948Z,10.18
2022-11-04T18:22:18.513Z,11.10
2022-11-04T18:24:45.172Z,12.40
2022-11-04T18:27:11.720Z,13.57
2022-11-04T18:29:38.253Z,11.25
2022-11-04T18:32:04.958Z,12.75
2022-11-04T18:34:31.492Z,9.98
2022-11-04T18:36:58.845Z,11.30
2022-11-04T18:39:25.559Z,11.20
2022-11-04T18:41:52.044Z,11.85
2022-11-04T18:44:20.115Z,10.32
2022-11-04T18:46:46.851Z,10.23
2022-11-04T18:49:14.209Z,9.32
2022-11-04T18:51:40.866Z,11.50
2022-11-04T18:54:07.870Z,10.90
2022-11-04T18:56:34.505Z,10.30
2022-11-04T18:59:01.383Z,11.50
2022-11-04T19:01:29.232Z,12.38
2022-11-04T19:03:56.041Z,17.15
2022-11-04T19:06:26.961Z,18.80
2022-11-04T19:09:05.030Z,17.98
2022-11-04T19:11:37.407Z,19.75
2022-11-04T19:14:09.447Z,18.67
2022-11-04T19:16:36.711Z,15.63
2022-11-04T19:19:04.441Z,20.33
2022-11-04T19:21:30.931Z,18.98
2022-11-04T19:23:59.859Z,19.63
2022-11-04T19:26:27.597Z,16.92
2022-11-04T19:28:54.716Z,15.35
2022-11-04T19:31:23.117Z,13.45
2022-11-04T19:33:50.252Z,16.00
2022-11-04T19:36:17.516Z,14.65
2022-11-04T19:38:44.031Z,13.43
2022-11-04T19:41:49.762Z,16.42
2022-11-04T19:44:17.487Z,13.82
2022-11-04T19:46:43.991Z,14.40
2022-11-04T19:49:10.944Z,12.60
2022-11-04T19:51:37.473Z,13.35
2022-11-04T19:54:04.360Z,12.15
2022-11-04T19:56:33.456Z,12.65
2022-11-04T19:59:05.550Z,12.27
2022-11-04T20:01:34.403Z,13.23
2022-11-04T20:04:02.690Z,15.13
2022-11-04T20:06:29.596Z,12.65
2022-11-04T20:08:56.102Z,11.73
2022-11-04T20:11:23.070Z,12.57
2022-11-04T20:13:50.040Z,11.85
2022-11-04T20:16:16.951Z,11.85
2022-11-04T20:18:44.038Z,15.07
2022-11-04T20:21:11.199Z,11.05
2022-11-04T20:23:38.087Z,12.77
2022-11-04T20:26:08.758Z,12.57
2022-11-04T20:28:35.409Z,13.80
2022-11-04T20:31:01.894Z,14.45
2022-11-04T20:33:28.364Z,13.55
2022-11-04T20:35:54.893Z,14.13
2022-11-04T20:38:21.428Z,13.32
2022-11-04T20:40:48.366Z,14.85
2022-11-04T20:43:14.926Z,12.45
2022-11-04T20:45:41.408Z,44.60
2022-11-04T20:48:08.117Z,13.75
2022-11-04T20:50:36.111Z,13.98
2022-11-04T20:53:02.577Z,13.30
2022-11-04T20:55:29.072Z,12.93
2022-11-04T20:57:55.499Z,13.50
2022-11-04T21:00:23.340Z,13.35
2022-11-04T21:02:50.481Z,14.02
2022-11-04T21:05:17.056Z,14.23
2022-11-04T21:07:43.655Z,13.55
2022-11-04T21:10:10.067Z,14.25
2022-11-04T21:12:36.542Z,15.48
2022-11-04T21:15:03.096Z,13.80
2022-11-04T21:17:29.575Z,13.82
2022-11-04T21:19:56.123Z,14.30
2022-11-04T21:22:22.624Z,13.85
2022-11-04T21:24:49.121Z,13.75
2022-11-04T21:27:15.639Z,13.75
2022-11-04T21:29:42.064Z,13.43
2022-11-04T21:32:08.496Z,15.75
2022-11-04T21:34:35.042Z,13.88
2022-11-04T21:37:01.555Z,12.15
2022-11-04T21:39:28.249Z,13.65
2022-11-04T21:41:54.769Z,13.52
2022-11-04T21:44:21.269Z,13.75
2022-11-04T21:46:49.657Z,13.80
2022-11-04T21:49:16.122Z,12.77
2022-11-04T21:51:42.619Z,13.60
2022-11-04T21:54:10.444Z,14.10
2022-11-04T21:56:36.879Z,13.18
2022-11-04T21:59:03.746Z,11.48
2022-11-04T22:01:31.046Z,13.65
2022-11-04T22:04:01.556Z,14.57
2022-11-04T22:06:33.559Z,12.73
2022-11-04T22:09:00.922Z,12.68
2022-11-04T22:11:28.332Z,13.85
2022-11-04T22:13:56.883Z,12.05
2022-11-04T22:16:24.968Z,13.13
2022-11-04T22:18:52.708Z,12.38
2022-11-04T22:21:19.953Z,12.15
2022-11-04T22:23:46.478Z,12.40
2022-11-04T22:26:14.231Z,12.20
2022-11-04T22:28:40.987Z,13.48
2022-11-04T22:31:08.606Z,12.25
2022-11-04T22:33:35.180Z,14.07
2022-11-04T22:36:01.724Z,12.45
2022-11-04T22:38:28.270Z,11.48
2022-11-04T22:40:58.890Z,11.60
2022-11-04T22:43:25.933Z,10.38
2022-11-04T22:45:53.116Z,12.25
2022-11-04T22:48:19.702Z,13.75
2022-11-04T22:50:46.666Z,11.38
2022-11-04T22:53:13.871Z,11.10
2022-11-04T22:55:40.331Z,12.95
2022-11-04T22:58:06.815Z,20.60
2022-11-04T23:00:33.283Z,13.82
2022-11-04T23:02:59.920Z,12.55
2022-11-04T23:05:28.175Z,10.65
2022-11-04T23:07:55.849Z,11.90
2022-11-04T23:10:40.897Z,12.15
2022-11-04T23:13:27.094Z,13.68
2022-11-04T23:16:12.440Z,13.30
2022-11-04T23:18:41.937Z,12.68
2022-11-04T23:21:31.344Z,11.40
2022-11-04T23:24:16.262Z,12.73
2022-11-04T23:26:43.042Z,11.50
2022-11-04T23:29:28.272Z,12.25
2022-11-04T23:31:54.765Z,12.77
2022-11-04T23:34:40.091Z,10.55
2022-11-04T23:37:12.684Z,12.93
2022-11-04T23:39:40.198Z,12.10
2022-11-04T23:42:18.917Z,13.35
2022-11-04T23:45:10.890Z,11.63
2022-11-04T23:48:00.721Z,11.70
2022-11-04T23:50:47.315Z,12.68
2022-11-04T23:53:33.511Z,12.40
2022-11-04T23:56:19.381Z,12.85
2022-11-04T23:59:04.758Z,13.15
